createdAt,value
2018-05-26T00:00:03.920Z,0.00
2018-05-26T00:01:56.709Z,0.00
2018-05-26T00:02:56.655Z,0.00
2018-05-26T00:04:49.445Z,0.00
2018-05-26T00:05:49.388Z,0.00
2018-05-26T00:07:42.126Z,0.00
2018-05-26T00:08:42.061Z,0.00
2018-05-26T00:10:34.848Z,0.00
2018-05-26T00:11:34.776Z,0.00
2018-05-26T00:13:27.545Z,0.00
2018-05-26T00:14:27.479Z,0.00
2018-05-26T00:16:20.295Z,0.00
2018-05-26T00:17:20.220Z,0.00
2018-05-26T00:19:13.022Z,0.00
2018-05-26T00:20:12.949Z,0.00
2018-05-26T00:22:05.716Z,0.00
2018-05-26T00:23:05.674Z,0.00
2018-05-26T00:24:58.438Z,0.00
2018-05-26T00:25:58.367Z,0.00
2018-05-26T00:27:51.139Z,0.00
2018-05-26T00:28:51.076Z,0.00
2018-05-26T00:30:43.846Z,0.00
2018-05-26T00:31:43.766Z,0.00
2018-05-26T00:33:36.554Z,0.00
2018-05-26T00:34:36.493Z,0.00
2018-05-26T00:36:29.292Z,0.00
2018-05-26T00:37:29.217Z,0.00
2018-05-26T00:39:21.991Z,0.00
2018-05-26T00:40:21.920Z,0.00
2018-05-26T00:42:14.714Z,0.00
2018-05-26T00:43:14.653Z,0.00
2018-05-26T00:45:07.446Z,0.00
2018-05-26T00:46:07.374Z,0.00
2018-05-26T00:48:00.169Z,0.00
2018-05-26T00:49:00.111Z,0.00
2018-05-26T00:50:52.885Z,0.00
2018-05-26T00:51:52.814Z,0.00
2018-05-26T00:53:45.607Z,0.00
2018-05-26T00:54:45.546Z,0.00
2018-05-26T00:56:38.318Z,0.00
2018-05-26T00:57:38.254Z,0.00
2018-05-26T00:59:31.054Z,0.00
2018-05-26T01:00:30.977Z,0.00
2018-05-26T01:02:23.741Z,0.00
2018-05-26T01:03:23.690Z,0.00
2018-05-26T01:05:16.488Z,0.00
2018-05-26T01:06:16.412Z,0.00
2018-05-26T01:08:09.186Z,0.00
2018-05-26T01:09:09.116Z,0.00
2018-05-26T01:11:01.909Z,0.00
2018-05-26T01:12:01.839Z,0.00
2018-05-26T01:13:54.632Z,0.00
2018-05-26T01:14:54.543Z,0.00
2018-05-26T01:16:47.315Z,0.00
2018-05-26T01:17:47.239Z,0.00
2018-05-26T01:19:40.018Z,0.00
2018-05-26T01:20:39.958Z,0.00
2018-05-26T01:22:32.762Z,0.00
2018-05-26T01:23:32.677Z,0.00
2018-05-26T01:25:25.483Z,0.00
2018-05-26T01:26:25.402Z,0.00
2018-05-26T01:28:18.161Z,0.00
2018-05-26T01:29:18.107Z,0.00
2018-05-26T01:31:10.885Z,0.00
2018-05-26T01:32:10.806Z,0.00
2018-05-26T01:34:03.582Z,0.00
2018-05-26T01:35:03.511Z,0.00
2018-05-26T01:36:56.327Z,0.00
2018-05-26T01:37:56.229Z,0.00
2018-05-26T01:39:48.993Z,0.00
2018-05-26T01:40:48.933Z,0.00
2018-05-26T01:42:41.711Z,0.00
2018-05-26T01:43:41.632Z,0.00
2018-05-26T01:45:34.435Z,0.00
2018-05-26T01:46:34.358Z,0.00
2018-05-26T01:48:27.124Z,0.00
2018-05-26T01:49:27.057Z,0.00
2018-05-26T01:51:19.832Z,0.00
2018-05-26T01:52:19.758Z,0.00
2018-05-26T01:54:12.533Z,0.00
2018-05-26T01:55:12.456Z,0.00
2018-05-26T01:57:05.226Z,0.00
2018-05-26T01:58:05.162Z,0.00
2018-05-26T01:59:57.927Z,0.00
2018-05-26T02:00:57.862Z,0.00
2018-05-26T02:02:50.634Z,0.00
2018-05-26T02:03:50.554Z,0.00
2018-05-26T02:05:43.390Z,0.00
2018-05-26T02:06:43.293Z,0.00
2018-05-26T02:08:36.062Z,0.00
2018-05-26T02:09:35.999Z,0.00
2018-05-26T02:11:28.780Z,0.00
2018-05-26T02:12:28.699Z,0.00
2018-05-26T02:14:21.463Z,0.00
2018-05-26T02:15:21.397Z,0.00
2018-05-26T02:17:14.183Z,0.00
2018-05-26T02:18:14.106Z,0.00
2018-05-26T02:20:06.880Z,0.00
2018-05-26T02:21:06.836Z,0.00
2018-05-26T02:22:59.612Z,0.00
2018-05-26T02:23:59.529Z,0.00
2018-05-26T02:25:52.288Z,0.00
2018-05-26T02:26:52.224Z,0.00
2018-05-26T02:28:45.009Z,0.00
2018-05-26T02:29:44.936Z,0.00
2018-05-26T02:31:37.735Z,0.00
2018-05-26T02:32:37.645Z,0.00
2018-05-26T02:34:30.428Z,0.00
2018-05-26T02:35:30.351Z,0.00
2018-05-26T02:37:23.129Z,0.00
2018-05-26T02:38:23.063Z,0.00
2018-05-26T02:40:15.828Z,0.00
2018-05-26T02:41:15.753Z,0.00
2018-05-26T02:43:08.535Z,0.00
2018-05-26T02:44:08.465Z,0.00
2018-05-26T02:46:01.218Z,0.00
2018-05-26T02:47:01.159Z,0.00
2018-05-26T02:48:53.938Z,0.00
2018-05-26T02:49:53.866Z,0.00
2018-05-26T02:51:46.643Z,0.00
2018-05-26T02:52:46.555Z,0.00
2018-05-26T02:54:39.343Z,0.00
2018-05-26T02:55:39.293Z,5.63
2018-05-26T02:57:32.053Z,5.63
2018-05-26T02:58:31.983Z,5.63
2018-05-26T03:00:24.757Z,5.63
2018-05-26T03:01:24.691Z,5.63
2018-05-26T03:03:17.490Z,5.63
2018-05-26T03:04:17.427Z,5.63
2018-05-26T03:06:10.177Z,5.63
2018-05-26T03:07:10.135Z,11.25
2018-05-26T03:09:02.890Z,11.25
2018-05-26T03:10:02.819Z,11.25
2018-05-26T03:11:55.617Z,11.25
2018-05-26T03:12:55.521Z,11.25
2018-05-26T03:14:48.285Z,16.88
2018-05-26T03:15:48.227Z,16.88
2018-05-26T03:17:41.027Z,16.88
2018-05-26T03:18:40.956Z,16.88
2018-05-26T03:20:33.743Z,16.88
2018-05-26T03:21:33.660Z,22.50
2018-05-26T03:23:26.466Z,22.50
2018-05-26T03:24:26.388Z,22.50
2018-05-26T03:26:19.170Z,22.50
2018-05-26T03:27:19.110Z,28.13
2018-05-26T03:29:11.880Z,28.13
2018-05-26T03:30:11.809Z,28.13
2018-05-26T03:32:04.566Z,28.13
2018-05-26T03:33:04.501Z,33.75
2018-05-26T03:34:57.272Z,33.75
2018-05-26T03:35:57.202Z,33.75
2018-05-26T03:37:49.974Z,39.38
2018-05-26T03:38:49.897Z,39.38
2018-05-26T03:40:42.662Z,39.38
2018-05-26T03:41:42.600Z,39.38
2018-05-26T03:43:35.367Z,45.00
2018-05-26T03:44:35.292Z,45.00
2018-05-26T03:46:28.056Z,45.00
2018-05-26T03:47:27.992Z,45.00
2018-05-26T03:49:20.760Z,50.63
2018-05-26T03:50:20.691Z,50.63
2018-05-26T03:52:13.451Z,50.63
2018-05-26T03:53:13.387Z,56.25
2018-05-26T03:55:06.169Z,56.25
2018-05-26T03:56:06.088Z,56.25
2018-05-26T03:57:58.883Z,56.25
2018-05-26T03:58:58.786Z,56.25
2018-05-26T04:00:51.552Z,61.88
2018-05-26T04:01:51.484Z,61.88
2018-05-26T04:03:44.261Z,61.88
2018-05-26T04:04:44.173Z,61.88
2018-05-26T04:06:36.947Z,67.50
2018-05-26T04:07:36.873Z,67.50
2018-05-26T04:09:29.683Z,67.50
2018-05-26T04:10:29.583Z,73.13
2018-05-26T04:12:22.355Z,73.13
2018-05-26T04:13:22.289Z,73.13
2018-05-26T04:15:15.094Z,78.75
2018-05-26T04:16:15.013Z,78.75
2018-05-26T04:18:07.816Z,78.75
2018-05-26T04:19:07.724Z,78.75
2018-05-26T04:21:00.516Z,84.38
2018-05-26T04:22:00.424Z,84.38
2018-05-26T04:23:53.284Z,84.38
2018-05-26T04:24:53.129Z,90.00
2018-05-26T04:26:45.909Z,90.00
2018-05-26T04:27:45.856Z,90.00
2018-05-26T04:29:38.652Z,95.63
2018-05-26T04:30:38.569Z,101.25
2018-05-26T04:32:31.363Z,106.88
2018-05-26T04:33:31.277Z,112.50
2018-05-26T04:35:24.102Z,118.13
2018-05-26T04:36:23.991Z,118.13
2018-05-26T04:38:16.760Z,123.75
2018-05-26T04:39:16.698Z,123.75
2018-05-26T04:41:09.487Z,129.38
2018-05-26T04:42:09.418Z,135.00
2018-05-26T04:44:02.189Z,140.63
2018-05-26T04:45:02.124Z,146.25
2018-05-26T04:46:54.900Z,157.50
2018-05-26T04:47:54.832Z,157.50
2018-05-26T04:49:47.639Z,163.13
2018-05-26T04:50:47.576Z,174.38
2018-05-26T04:52:40.330Z,168.75
2018-05-26T04:53:40.269Z,174.38
2018-05-26T04:55:33.086Z,208.13
2018-05-26T04:56:33.009Z,331.88
2018-05-26T04:58:25.769Z,601.88
2018-05-26T04:59:25.717Z,635.63
2018-05-26T05:01:18.485Z,646.88
2018-05-26T05:02:18.450Z,646.88
2018-05-26T05:04:11.183Z,601.88
2018-05-26T05:05:11.128Z,579.38
2018-05-26T05:07:03.971Z,562.50
2018-05-26T05:08:03.836Z,568.13
2018-05-26T05:09:56.648Z,573.75
2018-05-26T05:10:56.567Z,528.75
2018-05-26T05:12:49.351Z,483.75
2018-05-26T05:13:49.272Z,489.38
2018-05-26T05:15:42.051Z,483.75
2018-05-26T05:16:41.988Z,472.50
2018-05-26T05:18:34.765Z,478.13
2018-05-26T05:19:34.698Z,466.88
2018-05-26T05:21:27.504Z,461.25
2018-05-26T05:22:27.443Z,466.88
2018-05-26T05:24:20.252Z,461.25
2018-05-26T05:25:20.181Z,461.25
2018-05-26T05:27:12.975Z,455.63
2018-05-26T05:28:12.905Z,455.63
2018-05-26T05:30:05.687Z,461.25
2018-05-26T05:31:05.620Z,466.88
2018-05-26T05:32:58.403Z,461.25
2018-05-26T05:33:58.355Z,466.88
2018-05-26T05:35:51.160Z,466.88
2018-05-26T05:36:51.108Z,472.50
2018-05-26T05:38:43.892Z,478.13
2018-05-26T05:39:43.836Z,483.75
2018-05-26T05:41:36.657Z,489.38
2018-05-26T05:42:36.592Z,489.38
2018-05-26T05:44:29.394Z,500.63
2018-05-26T05:45:29.338Z,506.25
2018-05-26T05:47:22.147Z,506.25
2018-05-26T05:48:22.094Z,511.88
2018-05-26T05:50:14.901Z,523.13
2018-05-26T05:51:14.850Z,528.75
2018-05-26T05:53:07.688Z,534.38
2018-05-26T05:54:07.607Z,540.00
2018-05-26T05:56:00.413Z,562.50
2018-05-26T05:57:00.350Z,585.00
2018-05-26T05:58:53.141Z,624.38
2018-05-26T05:59:53.093Z,646.88
2018-05-26T06:01:45.898Z,736.88
2018-05-26T06:02:45.840Z,810.00
2018-05-26T06:04:38.673Z,1074.38
2018-05-26T06:05:38.634Z,1338.75
2018-05-26T06:07:31.421Z,1659.38
2018-05-26T06:08:31.354Z,1726.88
2018-05-26T06:10:24.158Z,1755.00
2018-05-26T06:11:24.100Z,1783.13
2018-05-26T06:13:16.911Z,2182.50
2018-05-26T06:14:16.851Z,2531.25
2018-05-26T06:16:09.671Z,3206.25
2018-05-26T06:17:09.597Z,3723.75
2018-05-26T06:19:02.388Z,4297.50
2018-05-26T06:20:02.338Z,4050.00
2018-05-26T06:21:55.160Z,3425.63
2018-05-26T06:22:55.097Z,3166.88
2018-05-26T06:24:47.910Z,2812.50
2018-05-26T06:25:47.851Z,2756.25
2018-05-26T06:27:40.666Z,2295.00
2018-05-26T06:28:40.603Z,2199.38
2018-05-26T06:30:33.413Z,2491.88
2018-05-26T06:31:33.351Z,2261.25
2018-05-26T06:33:26.665Z,2008.13
2018-05-26T06:34:26.602Z,1974.38
2018-05-26T06:36:19.398Z,1805.63
2018-05-26T06:37:19.343Z,1732.50
2018-05-26T06:39:12.125Z,1496.25
2018-05-26T06:40:12.069Z,1518.75
2018-05-26T06:42:04.869Z,1591.88
2018-05-26T06:43:04.824Z,1507.50
2018-05-26T06:44:57.590Z,1383.75
2018-05-26T06:45:57.545Z,1428.75
2018-05-26T06:47:50.333Z,1462.50
2018-05-26T06:48:50.278Z,1445.63
2018-05-26T06:50:43.080Z,1355.63
2018-05-26T06:51:43.020Z,1400.63
2018-05-26T06:53:35.843Z,1310.63
2018-05-26T06:54:35.775Z,1288.13
2018-05-26T06:56:28.560Z,1569.38
2018-05-26T06:57:28.516Z,1653.75
2018-05-26T06:59:21.327Z,1327.50
2018-05-26T07:00:21.310Z,1355.63
2018-05-26T07:02:14.071Z,1456.88
2018-05-26T07:03:14.012Z,1569.38
2018-05-26T07:05:06.812Z,1665.00
2018-05-26T07:06:06.757Z,1575.00
2018-05-26T07:07:59.563Z,1743.75
2018-05-26T07:08:59.510Z,1766.25
2018-05-26T07:10:52.295Z,2086.88
2018-05-26T07:11:52.251Z,2188.13
2018-05-26T07:13:45.066Z,2210.63
2018-05-26T07:14:45.004Z,2559.38
2018-05-26T07:16:37.809Z,3330.00
2018-05-26T07:17:37.754Z,3403.13
2018-05-26T07:19:30.566Z,2711.25
2018-05-26T07:20:30.512Z,2328.75
2018-05-26T07:22:23.318Z,2351.25
2018-05-26T07:23:23.260Z,2520.00
2018-05-26T07:25:16.051Z,2643.75
2018-05-26T07:26:16.004Z,2711.25
2018-05-26T07:28:08.809Z,2615.63
2018-05-26T07:29:08.754Z,2756.25
2018-05-26T07:31:01.540Z,2587.50
2018-05-26T07:32:01.496Z,2604.38
2018-05-26T07:33:54.311Z,2784.38
2018-05-26T07:34:54.245Z,2801.25
2018-05-26T07:36:47.035Z,2677.50
2018-05-26T07:37:46.988Z,2536.88
2018-05-26T07:39:39.793Z,2497.50
2018-05-26T07:40:39.736Z,2435.63
2018-05-26T07:42:32.533Z,2413.13
2018-05-26T07:43:32.473Z,2593.13
2018-05-26T07:45:25.331Z,2548.13
2018-05-26T07:46:25.226Z,2503.13
2018-05-26T07:48:18.027Z,2565.00
2018-05-26T07:49:17.978Z,2345.63
2018-05-26T07:51:10.776Z,2300.63
2018-05-26T07:52:10.759Z,2396.25
2018-05-26T07:54:03.541Z,2548.13
2018-05-26T07:55:03.484Z,2497.50
2018-05-26T07:56:56.284Z,2548.13
2018-05-26T07:57:56.249Z,2503.13
2018-05-26T07:59:49.054Z,2626.88
2018-05-26T08:00:48.983Z,2688.75
2018-05-26T08:02:41.768Z,2638.13
2018-05-26T08:03:41.725Z,2722.50
2018-05-26T08:05:34.533Z,2716.88
2018-05-26T08:06:34.473Z,2643.75
2018-05-26T08:08:27.292Z,2840.63
2018-05-26T08:09:27.231Z,2880.00
2018-05-26T08:11:20.030Z,2863.13
2018-05-26T08:12:19.978Z,2840.63
2018-05-26T08:14:12.797Z,2835.00
2018-05-26T08:15:12.735Z,2846.25
2018-05-26T08:17:05.536Z,3015.00
2018-05-26T08:18:05.479Z,2981.25
2018-05-26T08:19:58.287Z,3133.13
2018-05-26T08:20:58.226Z,3054.38
2018-05-26T08:22:51.030Z,3121.88
2018-05-26T08:23:50.977Z,3065.63
2018-05-26T08:25:43.809Z,3099.38
2018-05-26T08:26:43.749Z,3026.25
2018-05-26T08:28:36.567Z,3031.88
2018-05-26T08:29:36.506Z,3088.13
2018-05-26T08:31:29.307Z,3071.25
2018-05-26T08:32:29.262Z,3144.38
2018-05-26T08:34:22.082Z,3065.63
2018-05-26T08:35:22.054Z,3076.88
2018-05-26T08:37:14.832Z,3150.00
2018-05-26T08:38:14.784Z,3138.75
2018-05-26T08:40:07.603Z,3195.00
2018-05-26T08:41:07.546Z,3009.38
2018-05-26T08:43:00.351Z,2953.13
2018-05-26T08:44:00.303Z,3127.50
2018-05-26T08:45:53.142Z,3352.50
2018-05-26T08:46:53.080Z,3324.38
2018-05-26T08:48:45.883Z,3240.00
2018-05-26T08:49:45.822Z,3240.00
2018-05-26T08:51:38.627Z,3105.00
2018-05-26T08:52:38.591Z,3155.63
2018-05-26T08:54:31.386Z,3127.50
2018-05-26T08:55:31.341Z,2801.25
2018-05-26T08:57:24.134Z,3065.63
2018-05-26T08:58:24.318Z,3262.50
2018-05-26T09:00:16.895Z,3015.00
2018-05-26T09:01:16.845Z,3285.00
2018-05-26T09:03:09.637Z,3228.75
2018-05-26T09:04:09.598Z,3183.75
2018-05-26T09:06:02.399Z,3093.75
2018-05-26T09:07:02.345Z,3172.50
2018-05-26T09:08:55.171Z,3121.88
2018-05-26T09:09:55.135Z,3076.88
2018-05-26T09:11:47.959Z,3285.00
2018-05-26T09:12:47.909Z,3330.00
2018-05-26T09:14:40.714Z,3133.13
2018-05-26T09:15:40.657Z,3026.25
2018-05-26T09:17:33.450Z,3386.25
2018-05-26T09:18:33.412Z,3403.13
2018-05-26T09:20:26.233Z,3234.38
2018-05-26T09:21:26.178Z,3228.75
2018-05-26T09:23:18.975Z,3285.00
2018-05-26T09:24:18.938Z,3290.63
2018-05-26T09:26:11.754Z,3369.38
2018-05-26T09:27:11.699Z,3352.50
2018-05-26T09:29:04.509Z,3307.50
2018-05-26T09:30:04.466Z,3268.13
2018-05-26T09:31:57.269Z,3358.13
2018-05-26T09:32:57.213Z,3481.88
2018-05-26T09:34:50.094Z,3481.88
2018-05-26T09:35:50.044Z,3498.75
2018-05-26T09:37:42.850Z,3515.63
2018-05-26T09:38:42.803Z,3470.63
2018-05-26T09:40:35.620Z,3690.00
2018-05-26T09:41:35.554Z,3532.50
2018-05-26T09:43:28.354Z,3510.00
2018-05-26T09:44:28.305Z,3453.75
2018-05-26T09:46:21.116Z,3431.25
2018-05-26T09:47:21.061Z,3330.00
2018-05-26T09:49:13.886Z,3076.88
2018-05-26T09:50:13.842Z,2773.13
2018-05-26T09:52:06.651Z,3166.88
2018-05-26T09:53:06.609Z,3341.25
2018-05-26T09:54:59.405Z,3380.63
2018-05-26T09:55:59.410Z,3442.50
2018-05-26T09:57:52.151Z,3307.50
2018-05-26T09:58:52.107Z,3560.63
2018-05-26T10:00:44.914Z,3301.88
2018-05-26T10:01:44.856Z,3375.00
2018-05-26T10:03:37.654Z,2975.63
2018-05-26T10:04:37.626Z,1642.50
2018-05-26T10:06:30.413Z,585.00
2018-05-26T10:07:30.357Z,579.38
2018-05-26T10:09:23.170Z,1631.25
2018-05-26T10:10:23.127Z,1912.50
2018-05-26T10:12:15.927Z,1366.88
2018-05-26T10:13:15.874Z,2283.75
2018-05-26T10:15:08.719Z,2941.88
2018-05-26T10:16:08.642Z,3099.38
2018-05-26T10:18:01.448Z,1434.38
2018-05-26T10:19:01.405Z,3256.88
2018-05-26T10:20:54.248Z,3403.13
2018-05-26T10:21:54.190Z,3431.25
2018-05-26T10:23:46.983Z,3403.13
2018-05-26T10:24:46.944Z,3273.75
2018-05-26T10:26:39.749Z,3161.25
2018-05-26T10:27:39.689Z,3116.25
2018-05-26T10:29:32.485Z,2992.50
2018-05-26T10:30:32.489Z,3065.63
2018-05-26T10:32:25.255Z,3296.25
2018-05-26T10:33:25.206Z,3346.88
2018-05-26T10:35:18.009Z,3076.88
2018-05-26T10:36:17.962Z,1839.38
2018-05-26T10:38:10.775Z,2722.50
2018-05-26T10:39:10.696Z,1383.75
2018-05-26T10:41:03.501Z,781.88
2018-05-26T10:42:03.445Z,556.88
2018-05-26T10:43:56.287Z,540.00
2018-05-26T10:44:56.211Z,697.50
2018-05-26T10:46:49.060Z,618.75
2018-05-26T10:47:49.008Z,596.25
2018-05-26T10:49:41.779Z,618.75
2018-05-26T10:50:41.747Z,635.63
2018-05-26T10:52:34.582Z,613.13
2018-05-26T10:53:34.493Z,596.25
2018-05-26T10:55:27.295Z,568.13
2018-05-26T10:56:27.247Z,556.88
2018-05-26T10:58:20.063Z,556.88
2018-05-26T10:59:20.016Z,281.25
2018-05-26T11:01:12.803Z,528.75
2018-05-26T11:02:12.757Z,511.88
2018-05-26T11:04:05.578Z,500.63
2018-05-26T11:05:05.509Z,489.38
2018-05-26T11:06:58.315Z,483.75
2018-05-26T11:07:58.255Z,483.75
2018-05-26T11:09:51.053Z,511.88
2018-05-26T11:10:51.001Z,517.50
2018-05-26T11:12:43.800Z,506.25
2018-05-26T11:13:43.739Z,523.13
2018-05-26T11:15:36.543Z,675.00
2018-05-26T11:16:36.484Z,551.25
2018-05-26T11:18:29.294Z,303.75
2018-05-26T11:19:29.228Z,517.50
2018-05-26T11:21:22.028Z,517.50
2018-05-26T11:22:21.984Z,506.25
2018-05-26T11:24:14.852Z,500.63
2018-05-26T11:25:14.748Z,511.88
2018-05-26T11:27:07.534Z,337.50
2018-05-26T11:28:07.483Z,348.75
2018-05-26T11:30:00.299Z,320.63
2018-05-26T11:31:00.257Z,320.63
2018-05-26T11:32:53.060Z,691.88
2018-05-26T11:33:53.001Z,348.75
2018-05-26T11:35:45.787Z,343.13
2018-05-26T11:36:45.764Z,337.50
2018-05-26T11:38:38.558Z,320.63
2018-05-26T11:39:38.492Z,286.88
2018-05-26T11:41:31.300Z,236.25
2018-05-26T11:42:31.286Z,241.88
2018-05-26T11:44:24.057Z,241.88
2018-05-26T11:45:23.991Z,230.63
2018-05-26T11:47:16.791Z,230.63
2018-05-26T11:48:16.739Z,225.00
2018-05-26T11:50:09.567Z,208.13
2018-05-26T11:51:09.501Z,208.13
2018-05-26T11:53:02.300Z,208.13
2018-05-26T11:54:02.234Z,202.50
2018-05-26T11:55:55.020Z,202.50
2018-05-26T11:56:54.969Z,309.38
2018-05-26T11:58:47.785Z,292.50
2018-05-26T11:59:47.779Z,286.88
2018-05-26T12:01:40.530Z,303.75
2018-05-26T12:02:40.454Z,320.63
2018-05-26T12:04:33.266Z,315.00
2018-05-26T12:05:33.185Z,315.00
2018-05-26T12:07:25.992Z,315.00
2018-05-26T12:08:25.943Z,309.38
2018-05-26T12:10:18.745Z,303.75
2018-05-26T12:11:18.678Z,292.50
2018-05-26T12:13:11.472Z,281.25
2018-05-26T12:14:11.413Z,270.00
2018-05-26T12:16:04.211Z,258.75
2018-05-26T12:17:04.150Z,258.75
2018-05-26T12:18:56.943Z,264.38
2018-05-26T12:19:56.874Z,264.38
2018-05-26T12:21:49.649Z,258.75
2018-05-26T12:22:49.606Z,258.75
2018-05-26T12:24:42.422Z,253.13
2018-05-26T12:25:42.351Z,253.13
2018-05-26T12:27:35.142Z,247.50
2018-05-26T12:28:35.082Z,247.50
2018-05-26T12:30:27.888Z,258.75
2018-05-26T12:31:27.815Z,253.13
2018-05-26T12:33:20.605Z,258.75
2018-05-26T12:34:20.552Z,258.75
2018-05-26T12:36:13.356Z,253.13
2018-05-26T12:37:13.289Z,275.63
2018-05-26T12:39:06.141Z,281.25
2018-05-26T12:40:06.239Z,286.88
2018-05-26T12:41:58.907Z,236.25
2018-05-26T12:42:58.789Z,236.25
2018-05-26T12:44:51.624Z,264.38
2018-05-26T12:45:51.556Z,270.00
2018-05-26T12:47:44.359Z,281.25
2018-05-26T12:48:44.309Z,354.38
2018-05-26T12:50:37.106Z,320.63
2018-05-26T12:51:37.046Z,348.75
2018-05-26T12:53:29.819Z,348.75
2018-05-26T12:54:29.774Z,354.38
2018-05-26T12:56:22.573Z,354.38
2018-05-26T12:57:22.508Z,348.75
2018-05-26T12:59:15.306Z,360.00
2018-05-26T13:00:15.232Z,360.00
2018-05-26T13:02:08.025Z,354.38
2018-05-26T13:03:07.942Z,331.88
2018-05-26T13:05:00.747Z,331.88
2018-05-26T13:06:00.678Z,270.00
2018-05-26T13:07:53.478Z,270.00
2018-05-26T13:08:53.395Z,326.25
2018-05-26T13:10:46.208Z,292.50
2018-05-26T13:11:46.133Z,337.50
2018-05-26T13:13:38.927Z,348.75
2018-05-26T13:14:38.901Z,376.88
2018-05-26T13:16:31.685Z,371.25
2018-05-26T13:17:31.612Z,348.75
2018-05-26T13:19:24.429Z,354.38
2018-05-26T13:20:24.349Z,281.25
2018-05-26T13:22:17.145Z,258.75
2018-05-26T13:23:17.088Z,331.88
2018-05-26T13:25:09.955Z,236.25
2018-05-26T13:26:09.849Z,236.25
2018-05-26T13:28:02.631Z,309.38
2018-05-26T13:29:02.570Z,247.50
2018-05-26T13:30:55.381Z,202.50
2018-05-26T13:31:55.301Z,196.88
2018-05-26T13:33:48.086Z,185.63
2018-05-26T13:34:48.032Z,180.00
2018-05-26T13:36:40.881Z,151.88
2018-05-26T13:37:40.805Z,140.63
2018-05-26T13:39:33.612Z,123.75
2018-05-26T13:40:33.608Z,123.75
2018-05-26T13:42:26.343Z,123.75
2018-05-26T13:43:26.284Z,129.38
2018-05-26T13:45:19.101Z,123.75
2018-05-26T13:46:19.028Z,123.75
2018-05-26T13:48:11.808Z,129.38
2018-05-26T13:49:11.778Z,135.00
2018-05-26T13:51:04.578Z,146.25
2018-05-26T13:52:04.521Z,157.50
2018-05-26T13:53:57.261Z,180.00
2018-05-26T13:54:57.243Z,185.63
2018-05-26T13:56:50.025Z,185.63
2018-05-26T13:57:49.995Z,191.25
2018-05-26T13:59:42.754Z,202.50
2018-05-26T14:00:42.693Z,208.13
2018-05-26T14:02:35.516Z,219.38
2018-05-26T14:03:35.445Z,225.00
2018-05-26T14:05:28.237Z,230.63
2018-05-26T14:06:28.172Z,219.38
2018-05-26T14:08:20.980Z,213.75
2018-05-26T14:09:20.906Z,219.38
2018-05-26T14:11:13.694Z,219.38
2018-05-26T14:12:13.628Z,219.38
2018-05-26T14:14:06.426Z,230.63
2018-05-26T14:15:06.352Z,230.63
2018-05-26T14:16:59.159Z,230.63
2018-05-26T14:17:59.118Z,225.00
2018-05-26T14:19:52.007Z,219.38
2018-05-26T14:20:51.843Z,213.75
2018-05-26T14:22:44.659Z,241.88
2018-05-26T14:23:44.578Z,247.50
2018-05-26T14:25:37.393Z,219.38
2018-05-26T14:26:37.329Z,219.38
2018-05-26T14:28:30.119Z,236.25
2018-05-26T14:29:30.067Z,241.88
2018-05-26T14:31:22.999Z,247.50
2018-05-26T14:32:22.897Z,241.88
2018-05-26T14:34:15.758Z,241.88
2018-05-26T14:35:15.661Z,241.88
2018-05-26T14:37:08.458Z,236.25
2018-05-26T14:38:08.390Z,225.00
2018-05-26T14:40:01.178Z,208.13
2018-05-26T14:41:01.121Z,202.50
2018-05-26T14:43:28.887Z,202.50
2018-05-26T14:44:28.817Z,208.13
2018-05-26T14:46:21.618Z,219.38
2018-05-26T14:47:21.544Z,230.63
2018-05-26T14:49:14.337Z,258.75
2018-05-26T14:50:14.315Z,281.25
2018-05-26T14:52:07.082Z,343.13
2018-05-26T14:53:07.018Z,405.00
2018-05-26T14:54:59.807Z,331.88
2018-05-26T14:55:59.737Z,303.75
2018-05-26T14:57:52.539Z,315.00
2018-05-26T14:58:52.466Z,292.50
2018-05-26T15:00:45.250Z,309.38
2018-05-26T15:01:45.232Z,326.25
2018-05-26T15:03:38.116Z,416.25
2018-05-26T15:04:37.935Z,427.50
2018-05-26T15:06:30.776Z,438.75
2018-05-26T15:07:30.697Z,444.38
2018-05-26T15:09:23.484Z,433.13
2018-05-26T15:10:23.429Z,427.50
2018-05-26T15:12:16.228Z,427.50
2018-05-26T15:13:16.252Z,416.25
2018-05-26T15:15:08.962Z,405.00
2018-05-26T15:16:08.922Z,393.75
2018-05-26T15:18:01.719Z,382.50
2018-05-26T15:19:01.635Z,371.25
2018-05-26T15:20:54.433Z,292.50
2018-05-26T15:21:54.372Z,331.88
2018-05-26T15:23:47.258Z,247.50
2018-05-26T15:24:47.082Z,230.63
2018-05-26T15:26:39.905Z,202.50
2018-05-26T15:27:39.841Z,196.88
2018-05-26T15:29:32.624Z,180.00
2018-05-26T15:30:32.565Z,168.75
2018-05-26T15:32:25.374Z,151.88
2018-05-26T15:33:25.300Z,191.25
2018-05-26T15:35:18.088Z,135.00
2018-05-26T15:36:18.028Z,129.38
2018-05-26T15:38:10.824Z,135.00
2018-05-26T15:39:10.746Z,135.00
2018-05-26T15:41:03.534Z,146.25
2018-05-26T15:42:03.481Z,157.50
2018-05-26T15:43:56.282Z,213.75
2018-05-26T15:44:56.215Z,241.88
2018-05-26T15:46:49.028Z,174.38
2018-05-26T15:47:48.943Z,174.38
2018-05-26T15:49:41.770Z,180.00
2018-05-26T15:50:41.676Z,180.00
2018-05-26T15:52:34.496Z,180.00
2018-05-26T15:53:34.398Z,180.00
2018-05-26T15:55:27.184Z,185.63
2018-05-26T15:56:27.132Z,185.63
2018-05-26T15:58:19.920Z,174.38
2018-05-26T15:59:19.857Z,174.38
2018-05-26T16:01:12.625Z,168.75
2018-05-26T16:02:12.565Z,168.75
2018-05-26T16:04:05.356Z,168.75
2018-05-26T16:05:05.282Z,163.13
2018-05-26T16:06:58.071Z,157.50
2018-05-26T16:07:58.004Z,151.88
2018-05-26T16:09:50.793Z,135.00
2018-05-26T16:10:50.738Z,129.38
2018-05-26T16:12:43.551Z,118.13
2018-05-26T16:13:43.466Z,112.50
2018-05-26T16:15:36.247Z,112.50
2018-05-26T16:16:36.193Z,112.50
2018-05-26T16:18:28.985Z,118.13
2018-05-26T16:19:28.909Z,123.75
2018-05-26T16:21:21.731Z,118.13
2018-05-26T16:22:21.672Z,118.13
2018-05-26T16:24:14.674Z,118.13
2018-05-26T16:25:14.675Z,118.13
2018-05-26T16:27:07.628Z,123.75
2018-05-26T16:28:07.550Z,123.75
2018-05-26T16:30:00.297Z,135.00
2018-05-26T16:31:00.170Z,146.25
2018-05-26T16:32:52.910Z,146.25
2018-05-26T16:33:52.811Z,151.88
2018-05-26T16:35:45.851Z,163.13
2018-05-26T16:36:45.557Z,168.75
2018-05-26T16:38:38.413Z,202.50
2018-05-26T16:39:38.352Z,213.75
2018-05-26T16:41:31.281Z,174.38
2018-05-26T16:42:31.221Z,151.88
2018-05-26T16:44:24.047Z,146.25
2018-05-26T16:45:24.090Z,146.25
2018-05-26T16:47:16.757Z,163.13
2018-05-26T16:48:16.688Z,174.38
2018-05-26T16:50:09.521Z,174.38
2018-05-26T16:51:09.457Z,174.38
2018-05-26T16:53:02.271Z,174.38
2018-05-26T16:54:02.184Z,168.75
2018-05-26T16:55:54.968Z,163.13
2018-05-26T16:56:54.911Z,146.25
2018-05-26T16:58:47.728Z,129.38
2018-05-26T16:59:47.651Z,129.38
2018-05-26T17:01:40.438Z,112.50
2018-05-26T17:02:40.385Z,106.88
2018-05-26T17:04:33.255Z,95.63
2018-05-26T17:05:33.178Z,90.00
2018-05-26T17:07:25.969Z,78.75
2018-05-26T17:08:25.914Z,73.13
2018-05-26T17:10:18.720Z,73.13
2018-05-26T17:11:18.644Z,67.50
2018-05-26T17:13:11.435Z,67.50
2018-05-26T17:14:11.368Z,67.50
2018-05-26T17:16:04.163Z,78.75
2018-05-26T17:17:04.095Z,84.38
2018-05-26T17:18:56.886Z,90.00
2018-05-26T17:19:56.843Z,101.25
2018-05-26T17:21:49.607Z,118.13
2018-05-26T17:22:49.548Z,123.75
2018-05-26T17:24:42.350Z,129.38
2018-05-26T17:25:42.308Z,129.38
2018-05-26T17:27:35.049Z,135.00
2018-05-26T17:28:34.999Z,135.00
2018-05-26T17:30:27.811Z,135.00
2018-05-26T17:31:27.756Z,135.00
2018-05-26T17:33:20.517Z,129.38
2018-05-26T17:34:20.460Z,123.75
2018-05-26T17:36:13.251Z,118.13
2018-05-26T17:37:13.177Z,101.25
2018-05-26T17:39:05.963Z,90.00
2018-05-26T17:40:05.903Z,95.63
2018-05-26T17:41:58.695Z,95.63
2018-05-26T17:42:58.631Z,90.00
2018-05-26T17:44:51.442Z,90.00
2018-05-26T17:45:51.397Z,84.38
2018-05-26T17:47:44.167Z,73.13
2018-05-26T17:48:44.080Z,61.88
2018-05-26T17:50:36.875Z,56.25
2018-05-26T17:51:36.810Z,56.25
2018-05-26T17:53:29.706Z,50.63
2018-05-26T17:54:29.540Z,50.63
2018-05-26T17:56:22.317Z,45.00
2018-05-26T17:57:22.270Z,45.00
2018-05-26T17:59:15.048Z,50.63
2018-05-26T18:00:14.988Z,56.25
2018-05-26T18:02:07.852Z,56.25
2018-05-26T18:03:07.787Z,56.25
2018-05-26T18:05:47.198Z,61.88